sensor_id;sensor_type;location;lat;lon;timestamp;P1;durP1;ratioP1;P2;durP2;ratioP2
11082;SDS011;5595;50.186;8.468;2023-06-19T00:00:17;2.67;;;2.00;;
11082;SDS011;5595;50.186;8.468;2023-06-19T00:02:44;2.00;;;1.90;;
11082;SDS011;5595;50.186;8.468;2023-06-19T00:05:12;2.72;;;1.40;;
11082;SDS011;5595;50.186;8.468;2023-06-19T00:07:39;1.98;;;1.73;;
11082;SDS011;5595;50.186;8.468;2023-06-19T00:10:06;2.00;;;1.80;;
11082;SDS011;5595;50.186;8.468;2023-06-19T00:12:33;2.58;;;1.90;;
11082;SDS011;5595;50.186;8.468;2023-06-19T00:15:01;3.17;;;1.70;;
11082;SDS011;5595;50.186;8.468;2023-06-19T00:17:28;2.15;;;1.77;;
11082;SDS011;5595;50.186;8.468;2023-06-19T00:19:55;2.10;;;1.88;;
11082;SDS011;5595;50.186;8.468;2023-06-19T00:22:22;2.55;;;2.08;;
11082;SDS011;5595;50.186;8.468;2023-06-19T00:24:49;3.30;;;2.25;;
11082;SDS011;5595;50.186;8.468;2023-06-19T00:27:17;2.08;;;1.88;;
11082;SDS011;5595;50.186;8.468;2023-06-19T00:29:43;2.25;;;2.05;;
11082;SDS011;5595;50.186;8.468;2023-06-19T00:32:12;2.38;;;1.77;;
11082;SDS011;5595;50.186;8.468;2023-06-19T00:34:38;1.73;;;1.52;;
11082;SDS011;5595;50.186;8.468;2023-06-19T00:37:08;2.38;;;1.85;;
11082;SDS011;5595;50.186;8.468;2023-06-19T00:39:38;1.98;;;1.50;;
11082;SDS011;5595;50.186;8.468;2023-06-19T00:42:05;1.52;;;1.42;;
11082;SDS011;5595;50.186;8.468;2023-06-19T00:44:32;1.88;;;1.70;;
11082;SDS011;5595;50.186;8.468;2023-06-19T00:47:00;2.22;;;1.58;;
11082;SDS011;5595;50.186;8.468;2023-06-19T00:49:30;2.25;;;1.80;;
11082;SDS011;5595;50.186;8.468;2023-06-19T00:51:58;1.98;;;1.77;;
11082;SDS011;5595;50.186;8.468;2023-06-19T00:54:25;1.83;;;1.60;;
11082;SDS011;5595;50.186;8.468;2023-06-19T00:56:52;2.25;;;1.95;;
11082;SDS011;5595;50.186;8.468;2023-06-19T00:59:20;1.38;;;1.27;;
11082;SDS011;5595;50.186;8.468;2023-06-19T01:01:47;2.05;;;1.65;;
11082;SDS011;5595;50.186;8.468;2023-06-19T01:04:14;1.92;;;1.63;;
11082;SDS011;5595;50.186;8.468;2023-06-19T01:06:43;1.48;;;1.35;;
11082;SDS011;5595;50.186;8.468;2023-06-19T01:09:22;1.65;;;1.55;;
11082;SDS011;5595;50.186;8.468;2023-06-19T01:11:54;2.80;;;1.90;;
11082;SDS011;5595;50.186;8.468;2023-06-19T01:14:25;1.83;;;1.65;;
11082;SDS011;5595;50.186;8.468;2023-06-19T01:16:54;1.60;;;1.50;;
11082;SDS011;5595;50.186;8.468;2023-06-19T01:19:21;2.10;;;1.50;;
11082;SDS011;5595;50.186;8.468;2023-06-19T01:21:49;1.50;;;1.40;;
11082;SDS011;5595;50.186;8.468;2023-06-19T01:24:18;1.50;;;1.40;;
11082;SDS011;5595;50.186;8.468;2023-06-19T01:26:44;3.10;;;1.77;;
11082;SDS011;5595;50.186;8.468;2023-06-19T01:29:12;1.52;;;1.42;;
11082;SDS011;5595;50.186;8.468;2023-06-19T01:31:42;2.00;;;1.65;;
11082;SDS011;5595;50.186;8.468;2023-06-19T01:34:15;1.90;;;1.52;;
11082;SDS011;5595;50.186;8.468;2023-06-19T01:36:45;1.77;;;1.52;;
11082;SDS011;5595;50.186;8.468;2023-06-19T01:39:22;1.88;;;1.75;;
11082;SDS011;5595;50.186;8.468;2023-06-19T01:41:50;2.03;;;1.75;;
11082;SDS011;5595;50.186;8.468;2023-06-19T01:44:18;2.00;;;1.77;;
11082;SDS011;5595;50.186;8.468;2023-06-19T01:46:47;2.22;;;1.88;;
11082;SDS011;5595;50.186;8.468;2023-06-19T01:49:14;1.63;;;1.52;;
11082;SDS011;5595;50.186;8.468;2023-06-19T01:51:41;2.60;;;1.90;;
11082;SDS011;5595;50.186;8.468;2023-06-19T01:54:08;2.25;;;2.00;;
11082;SDS011;5595;50.186;8.468;2023-06-19T01:56:36;1.48;;;1.38;;
11082;SDS011;5595;50.186;8.468;2023-06-19T01:59:03;1.90;;;1.55;;
11082;SDS011;5595;50.186;8.468;2023-06-19T02:01:30;1.42;;;1.27;;
11082;SDS011;5595;50.186;8.468;2023-06-19T02:03:56;1.60;;;1.50;;
11082;SDS011;5595;50.186;8.468;2023-06-19T02:06:23;2.08;;;1.75;;
11082;SDS011;5595;50.186;8.468;2023-06-19T02:08:50;2.60;;;1.60;;
11082;SDS011;5595;50.186;8.468;2023-06-19T02:11:17;1.88;;;1.67;;
11082;SDS011;5595;50.186;8.468;2023-06-19T02:13:45;2.53;;;1.98;;
11082;SDS011;5595;50.186;8.468;2023-06-19T02:16:12;2.78;;;1.98;;
11082;SDS011;5595;50.186;8.468;2023-06-19T02:18:39;2.83;;;1.75;;
11082;SDS011;5595;50.186;8.468;2023-06-19T02:21:06;1.90;;;1.77;;
11082;SDS011;5595;50.186;8.468;2023-06-19T02:23:32;2.10;;;1.60;;
11082;SDS011;5595;50.186;8.468;2023-06-19T02:25:59;1.90;;;1.70;;
11082;SDS011;5595;50.186;8.468;2023-06-19T02:28:26;1.73;;;1.45;;
11082;SDS011;5595;50.186;8.468;2023-06-19T02:30:54;3.33;;;1.80;;
11082;SDS011;5595;50.186;8.468;2023-06-19T02:33:21;1.88;;;1.77;;
11082;SDS011;5595;50.186;8.468;2023-06-19T02:35:48;2.03;;;1.88;;
11082;SDS011;5595;50.186;8.468;2023-06-19T02:38:15;1.83;;;1.63;;
11082;SDS011;5595;50.186;8.468;2023-06-19T02:40:46;2.45;;;1.67;;
11082;SDS011;5595;50.186;8.468;2023-06-19T02:43:12;1.92;;;1.65;;
11082;SDS011;5595;50.186;8.468;2023-06-19T02:45:40;2.20;;;1.92;;
11082;SDS011;5595;50.186;8.468;2023-06-19T02:48:08;1.40;;;1.30;;
11082;SDS011;5595;50.186;8.468;2023-06-19T02:50:35;2.00;;;1.80;;
11082;SDS011;5595;50.186;8.468;2023-06-19T02:53:02;1.65;;;1.55;;
11082;SDS011;5595;50.186;8.468;2023-06-19T02:55:29;2.63;;;1.70;;
11082;SDS011;5595;50.186;8.468;2023-06-19T02:57:56;2.38;;;1.63;;
11082;SDS011;5595;50.186;8.468;2023-06-19T03:00:23;2.35;;;1.83;;
11082;SDS011;5595;50.186;8.468;2023-06-19T03:02:49;2.78;;;1.90;;
11082;SDS011;5595;50.186;8.468;2023-06-19T03:05:18;1.95;;;1.60;;
11082;SDS011;5595;50.186;8.468;2023-06-19T03:07:45;1.63;;;1.52;;
11082;SDS011;5595;50.186;8.468;2023-06-19T03:10:14;2.30;;;1.67;;
11082;SDS011;5595;50.186;8.468;2023-06-19T03:12:41;1.58;;;1.48;;
11082;SDS011;5595;50.186;8.468;2023-06-19T03:15:08;1.88;;;1.48;;
11082;SDS011;5595;50.186;8.468;2023-06-19T03:17:35;1.55;;;1.40;;
11082;SDS011;5595;50.186;8.468;2023-06-19T03:20:02;1.70;;;1.60;;
11082;SDS011;5595;50.186;8.468;2023-06-19T03:22:32;1.50;;;1.40;;
11082;SDS011;5595;50.186;8.468;2023-06-19T03:24:59;4.25;;;1.70;;
11082;SDS011;5595;50.186;8.468;2023-06-19T03:27:25;1.83;;;1.67;;
11082;SDS011;5595;50.186;8.468;2023-06-19T03:29:54;1.67;;;1.50;;
11082;SDS011;5595;50.186;8.468;2023-06-19T03:32:21;3.00;;;1.90;;
11082;SDS011;5595;50.186;8.468;2023-06-19T03:34:47;2.38;;;2.05;;
11082;SDS011;5595;50.186;8.468;2023-06-19T03:37:14;3.00;;;2.03;;
11082;SDS011;5595;50.186;8.468;2023-06-19T03:39:42;1.38;;;1.33;;
11082;SDS011;5595;50.186;8.468;2023-06-19T03:42:09;1.60;;;1.50;;
11082;SDS011;5595;50.186;8.468;2023-06-19T03:44:36;2.00;;;1.83;;
11082;SDS011;5595;50.186;8.468;2023-06-19T03:47:03;3.13;;;2.05;;
11082;SDS011;5595;50.186;8.468;2023-06-19T03:49:30;1.95;;;1.50;;
11082;SDS011;5595;50.186;8.468;2023-06-19T03:51:57;3.47;;;1.88;;
11082;SDS011;5595;50.186;8.468;2023-06-19T03:54:24;1.70;;;1.60;;
11082;SDS011;5595;50.186;8.468;2023-06-19T03:56:52;1.90;;;1.73;;
11082;SDS011;5595;50.186;8.468;2023-06-19T03:59:19;2.55;;;1.40;;
11082;SDS011;5595;50.186;8.468;2023-06-19T04:01:46;1.58;;;1.48;;
11082;SDS011;5595;50.186;8.468;2023-06-19T04:04:12;1.67;;;1.58;;
11082;SDS011;5595;50.186;8.468;2023-06-19T04:06:39;2.00;;;1.48;;
11082;SDS011;5595;50.186;8.468;2023-06-19T04:09:06;1.30;;;1.20;;
11082;SDS011;5595;50.186;8.468;2023-06-19T04:11:33;1.30;;;1.20;;
11082;SDS011;5595;50.186;8.468;2023-06-19T04:14:01;1.40;;;1.30;;
11082;SDS011;5595;50.186;8.468;2023-06-19T04:16:28;1.65;;;1.25;;
11082;SDS011;5595;50.186;8.468;2023-06-19T04:18:54;1.55;;;1.23;;
11082;SDS011;5595;50.186;8.468;2023-06-19T04:21:21;1.67;;;1.50;;
11082;SDS011;5595;50.186;8.468;2023-06-19T04:23:48;1.50;;;1.38;;
11082;SDS011;5595;50.186;8.468;2023-06-19T04:26:15;1.48;;;1.38;;
11082;SDS011;5595;50.186;8.468;2023-06-19T04:28:43;1.75;;;1.50;;
11082;SDS011;5595;50.186;8.468;2023-06-19T04:31:11;2.30;;;1.65;;
11082;SDS011;5595;50.186;8.468;2023-06-19T04:33:38;2.13;;;1.92;;
11082;SDS011;5595;50.186;8.468;2023-06-19T04:36:06;2.10;;;1.90;;
11082;SDS011;5595;50.186;8.468;2023-06-19T04:38:35;2.05;;;1.90;;
11082;SDS011;5595;50.186;8.468;2023-06-19T04:41:01;2.17;;;1.70;;
11082;SDS011;5595;50.186;8.468;2023-06-19T04:43:28;3.97;;;1.80;;
11082;SDS011;5595;50.186;8.468;2023-06-19T04:45:55;2.80;;;2.08;;
11082;SDS011;5595;50.186;8.468;2023-06-19T04:48:23;1.83;;;1.73;;
11082;SDS011;5595;50.186;8.468;2023-06-19T04:50:51;1.80;;;1.70;;
11082;SDS011;5595;50.186;8.468;2023-06-19T04:53:19;2.45;;;1.60;;
11082;SDS011;5595;50.186;8.468;2023-06-19T04:55:49;2.22;;;1.58;;
11082;SDS011;5595;50.186;8.468;2023-06-19T04:58:16;2.15;;;1.95;;
11082;SDS011;5595;50.186;8.468;2023-06-19T05:00:43;2.20;;;1.90;;
11082;SDS011;5595;50.186;8.468;2023-06-19T05:03:09;2.13;;;1.70;;
11082;SDS011;5595;50.186;8.468;2023-06-19T05:05:40;1.60;;;1.50;;
11082;SDS011;5595;50.186;8.468;2023-06-19T05:08:07;2.38;;;1.70;;
11082;SDS011;5595;50.186;8.468;2023-06-19T05:10:34;1.70;;;1.60;;
11082;SDS011;5595;50.186;8.468;2023-06-19T05:13:00;2.50;;;1.75;;
11082;SDS011;5595;50.186;8.468;2023-06-19T05:15:28;1.60;;;1.50;;
11082;SDS011;5595;50.186;8.468;2023-06-19T05:17:56;2.17;;;1.52;;
11082;SDS011;5595;50.186;8.468;2023-06-19T05:20:23;1.80;;;1.63;;
11082;SDS011;5595;50.186;8.468;2023-06-19T05:22:51;2.17;;;1.92;;
11082;SDS011;5595;50.186;8.468;2023-06-19T05:25:18;1.58;;;1.48;;
11082;SDS011;5595;50.186;8.468;2023-06-19T05:27:45;3.20;;;1.70;;
11082;SDS011;5595;50.186;8.468;2023-06-19T05:30:12;2.35;;;1.65;;
11082;SDS011;5595;50.186;8.468;2023-06-19T05:32:39;1.60;;;1.50;;
11082;SDS011;5595;50.186;8.468;2023-06-19T05:35:06;4.32;;;1.70;;
11082;SDS011;5595;50.186;8.468;2023-06-19T05:37:33;1.25;;;1.25;;
11082;SDS011;5595;50.186;8.468;2023-06-19T05:40:01;1.55;;;1.42;;
11082;SDS011;5595;50.186;8.468;2023-06-19T05:42:28;1.38;;;1.25;;
11082;SDS011;5595;50.186;8.468;2023-06-19T05:44:55;1.30;;;1.20;;
11082;SDS011;5595;50.186;8.468;2023-06-19T05:47:22;2.15;;;1.25;;
11082;SDS011;5595;50.186;8.468;2023-06-19T05:49:50;1.45;;;1.35;;
11082;SDS011;5595;50.186;8.468;2023-06-19T05:52:17;1.38;;;1.27;;
11082;SDS011;5595;50.186;8.468;2023-06-19T05:54:44;3.22;;;1.27;;
11082;SDS011;5595;50.186;8.468;2023-06-19T05:57:12;1.45;;;1.35;;
11082;SDS011;5595;50.186;8.468;2023-06-19T05:59:41;1.20;;;1.10;;
11082;SDS011;5595;50.186;8.468;2023-06-19T06:02:07;1.20;;;1.10;;
11082;SDS011;5595;50.186;8.468;2023-06-19T06:04:34;2.25;;;1.33;;
11082;SDS011;5595;50.186;8.468;2023-06-19T06:07:01;1.23;;;1.13;;
11082;SDS011;5595;50.186;8.468;2023-06-19T06:09:28;1.55;;;1.42;;
11082;SDS011;5595;50.186;8.468;2023-06-19T06:11:55;0.90;;;0.90;;
11082;SDS011;5595;50.186;8.468;2023-06-19T06:14:23;3.05;;;1.38;;
11082;SDS011;5595;50.186;8.468;2023-06-19T06:16:50;1.30;;;1.20;;
11082;SDS011;5595;50.186;8.468;2023-06-19T06:19:16;1.25;;;1.15;;
11082;SDS011;5595;50.186;8.468;2023-06-19T06:21:44;2.15;;;1.40;;
11082;SDS011;5595;50.186;8.468;2023-06-19T06:24:11;1.45;;;1.20;;
11082;SDS011;5595;50.186;8.468;2023-06-19T06:26:37;1.60;;;1.30;;
11082;SDS011;5595;50.186;8.468;2023-06-19T06:29:04;1.30;;;1.20;;
11082;SDS011;5595;50.186;8.468;2023-06-19T06:31:32;1.73;;;1.33;;
11082;SDS011;5595;50.186;8.468;2023-06-19T06:33:59;1.02;;;0.98;;
11082;SDS011;5595;50.186;8.468;2023-06-19T06:36:29;1.33;;;1.02;;
11082;SDS011;5595;50.186;8.468;2023-06-19T06:38:55;0.90;;;0.90;;
11082;SDS011;5595;50.186;8.468;2023-06-19T06:41:22;1.13;;;1.05;;
11082;SDS011;5595;50.186;8.468;2023-06-19T06:43:49;1.20;;;1.10;;
11082;SDS011;5595;50.186;8.468;2023-06-19T06:46:16;1.15;;;1.05;;
11082;SDS011;5595;50.186;8.468;2023-06-19T06:48:44;1.13;;;1.02;;
11082;SDS011;5595;50.186;8.468;2023-06-19T06:51:10;2.05;;;0.93;;
11082;SDS011;5595;50.186;8.468;2023-06-19T06:53:37;1.27;;;1.17;;
11082;SDS011;5595;50.186;8.468;2023-06-19T06:56:04;1.20;;;1.10;;
11082;SDS011;5595;50.186;8.468;2023-06-19T06:58:31;0.88;;;0.88;;
11082;SDS011;5595;50.186;8.468;2023-06-19T07:00:58;1.70;;;1.08;;
11082;SDS011;5595;50.186;8.468;2023-06-19T07:03:25;1.08;;;1.00;;
11082;SDS011;5595;50.186;8.468;2023-06-19T07:05:55;1.35;;;1.17;;
11082;SDS011;5595;50.186;8.468;2023-06-19T07:08:22;1.60;;;1.20;;
11082;SDS011;5595;50.186;8.468;2023-06-19T07:10:49;1.35;;;1.25;;
11082;SDS011;5595;50.186;8.468;2023-06-19T07:13:16;1.23;;;1.13;;
11082;SDS011;5595;50.186;8.468;2023-06-19T07:15:43;0.85;;;0.85;;
11082;SDS011;5595;50.186;8.468;2023-06-19T07:18:09;0.93;;;0.93;;
11082;SDS011;5595;50.186;8.468;2023-06-19T07:20:36;0.90;;;0.90;;
11082;SDS011;5595;50.186;8.468;2023-06-19T07:23:04;0.70;;;0.70;;
11082;SDS011;5595;50.186;8.468;2023-06-19T07:25:31;1.38;;;0.82;;
11082;SDS011;5595;50.186;8.468;2023-06-19T07:27:59;2.50;;;1.15;;
11082;SDS011;5595;50.186;8.468;2023-06-19T07:30:26;1.15;;;0.57;;
11082;SDS011;5595;50.186;8.468;2023-06-19T07:32:53;0.90;;;0.77;;
11082;SDS011;5595;50.186;8.468;2023-06-19T07:35:19;0.70;;;0.47;;
11082;SDS011;5595;50.186;8.468;2023-06-19T07:37:46;0.93;;;0.65;;
11082;SDS011;5595;50.186;8.468;2023-06-19T07:40:15;0.55;;;0.50;;
11082;SDS011;5595;50.186;8.468;2023-06-19T07:42:42;0.57;;;0.45;;
11082;SDS011;5595;50.186;8.468;2023-06-19T07:45:09;0.60;;;0.60;;
11082;SDS011;5595;50.186;8.468;2023-06-19T07:47:36;0.50;;;0.50;;
11082;SDS011;5595;50.186;8.468;2023-06-19T07:50:04;0.68;;;0.50;;
11082;SDS011;5595;50.186;8.468;2023-06-19T07:52:31;0.70;;;0.70;;
11082;SDS011;5595;50.186;8.468;2023-06-19T07:54:59;0.40;;;0.40;;
11082;SDS011;5595;50.186;8.468;2023-06-19T07:57:27;0.50;;;0.50;;
11082;SDS011;5595;50.186;8.468;2023-06-19T07:59:54;1.83;;;0.57;;
11082;SDS011;5595;50.186;8.468;2023-06-19T08:02:21;1.58;;;0.77;;
11082;SDS011;5595;50.186;8.468;2023-06-19T08:04:48;0.60;;;0.60;;
11082;SDS011;5595;50.186;8.468;2023-06-19T08:07:15;0.45;;;0.45;;
11082;SDS011;5595;50.186;8.468;2023-06-19T08:09:42;0.47;;;0.47;;
11082;SDS011;5595;50.186;8.468;2023-06-19T08:12:09;0.50;;;0.50;;
11082;SDS011;5595;50.186;8.468;2023-06-19T08:14:37;1.23;;;0.80;;
11082;SDS011;5595;50.186;8.468;2023-06-19T08:17:04;1.52;;;0.80;;
11082;SDS011;5595;50.186;8.468;2023-06-19T08:19:31;0.63;;;0.63;;
11082;SDS011;5595;50.186;8.468;2023-06-19T08:21:58;0.68;;;0.65;;
11082;SDS011;5595;50.186;8.468;2023-06-19T08:24:25;0.52;;;0.50;;
11082;SDS011;5595;50.186;8.468;2023-06-19T08:26:52;0.60;;;0.60;;
11082;SDS011;5595;50.186;8.468;2023-06-19T08:29:19;0.60;;;0.60;;
11082;SDS011;5595;50.186;8.468;2023-06-19T08:31:49;1.10;;;0.85;;
11082;SDS011;5595;50.186;8.468;2023-06-19T08:34:15;0.60;;;0.60;;
11082;SDS011;5595;50.186;8.468;2023-06-19T08:36:42;0.82;;;0.60;;
11082;SDS011;5595;50.186;8.468;2023-06-19T08:39:09;0.77;;;0.77;;
11082;SDS011;5595;50.186;8.468;2023-06-19T08:41:36;0.80;;;0.80;;
11082;SDS011;5595;50.186;8.468;2023-06-19T08:44:04;0.82;;;0.80;;
11082;SDS011;5595;50.186;8.468;2023-06-19T08:46:31;0.60;;;0.60;;
11082;SDS011;5595;50.186;8.468;2023-06-19T08:48:59;0.88;;;0.73;;
11082;SDS011;5595;50.186;8.468;2023-06-19T08:51:26;0.70;;;0.55;;
11082;SDS011;5595;50.186;8.468;2023-06-19T08:53:59;0.90;;;0.90;;
11082;SDS011;5595;50.186;8.468;2023-06-19T08:56:28;0.52;;;0.52;;
11082;SDS011;5595;50.186;8.468;2023-06-19T08:59:07;1.55;;;0.90;;
11082;SDS011;5595;50.186;8.468;2023-06-19T09:01:35;1.30;;;0.90;;
11082;SDS011;5595;50.186;8.468;2023-06-19T09:04:10;0.50;;;0.50;;
11082;SDS011;5595;50.186;8.468;2023-06-19T09:06:45;1.48;;;0.82;;
11082;SDS011;5595;50.186;8.468;2023-06-19T09:09:15;4.50;;;0.93;;
11082;SDS011;5595;50.186;8.468;2023-06-19T09:11:42;0.88;;;0.88;;
11082;SDS011;5595;50.186;8.468;2023-06-19T09:14:14;1.15;;;0.68;;
11082;SDS011;5595;50.186;8.468;2023-06-19T09:16:41;0.77;;;0.77;;
11082;SDS011;5595;50.186;8.468;2023-06-19T09:19:09;2.40;;;0.88;;
11082;SDS011;5595;50.186;8.468;2023-06-19T09:21:37;0.80;;;0.80;;
11082;SDS011;5595;50.186;8.468;2023-06-19T09:24:07;0.77;;;0.77;;
11082;SDS011;5595;50.186;8.468;2023-06-19T09:26:34;0.80;;;0.60;;
11082;SDS011;5595;50.186;8.468;2023-06-19T09:29:11;0.60;;;0.47;;
11082;SDS011;5595;50.186;8.468;2023-06-19T09:31:38;1.05;;;0.90;;
11082;SDS011;5595;50.186;8.468;2023-06-19T09:34:06;0.75;;;0.75;;
11082;SDS011;5595;50.186;8.468;2023-06-19T09:36:34;0.57;;;0.57;;
11082;SDS011;5595;50.186;8.468;2023-06-19T09:39:02;0.70;;;0.70;;
11082;SDS011;5595;50.186;8.468;2023-06-19T09:41:32;0.65;;;0.60;;
11082;SDS011;5595;50.186;8.468;2023-06-19T09:44:02;0.70;;;0.70;;
11082;SDS011;5595;50.186;8.468;2023-06-19T09:46:37;0.90;;;0.65;;
11082;SDS011;5595;50.186;8.468;2023-06-19T09:49:06;1.02;;;0.80;;
11082;SDS011;5595;50.186;8.468;2023-06-19T09:51:40;0.73;;;0.73;;
11082;SDS011;5595;50.186;8.468;2023-06-19T09:54:09;0.90;;;0.50;;
11082;SDS011;5595;50.186;8.468;2023-06-19T09:56:49;0.60;;;0.60;;
11082;SDS011;5595;50.186;8.468;2023-06-19T09:59:23;0.70;;;0.70;;
11082;SDS011;5595;50.186;8.468;2023-06-19T10:01:54;2.05;;;0.90;;
11082;SDS011;5595;50.186;8.468;2023-06-19T10:04:26;1.00;;;0.68;;
11082;SDS011;5595;50.186;8.468;2023-06-19T10:06:55;0.73;;;0.73;;
11082;SDS011;5595;50.186;8.468;2023-06-19T10:09:22;1.10;;;1.00;;
11082;SDS011;5595;50.186;8.468;2023-06-19T10:11:49;0.63;;;0.60;;
11082;SDS011;5595;50.186;8.468;2023-06-19T10:14:17;0.63;;;0.60;;
11082;SDS011;5595;50.186;8.468;2023-06-19T10:16:45;1.00;;;0.63;;
11082;SDS011;5595;50.186;8.468;2023-06-19T10:19:13;0.60;;;0.60;;
11082;SDS011;5595;50.186;8.468;2023-06-19T10:21:44;0.65;;;0.65;;
11082;SDS011;5595;50.186;8.468;2023-06-19T10:24:17;0.70;;;0.70;;
11082;SDS011;5595;50.186;8.468;2023-06-19T10:26:55;0.80;;;0.80;;
11082;SDS011;5595;50.186;8.468;2023-06-19T10:29:23;0.73;;;0.40;;
11082;SDS011;5595;50.186;8.468;2023-06-19T10:31:50;0.80;;;0.80;;
11082;SDS011;5595;50.186;8.468;2023-06-19T10:34:17;0.68;;;0.63;;
11082;SDS011;5595;50.186;8.468;2023-06-19T10:36:44;0.80;;;0.77;;
11082;SDS011;5595;50.186;8.468;2023-06-19T10:39:11;1.20;;;0.98;;
11082;SDS011;5595;50.186;8.468;2023-06-19T10:41:40;0.63;;;0.63;;
11082;SDS011;5595;50.186;8.468;2023-06-19T10:44:07;0.95;;;0.85;;
11082;SDS011;5595;50.186;8.468;2023-06-19T10:46:37;0.95;;;0.85;;
11082;SDS011;5595;50.186;8.468;2023-06-19T10:49:05;1.00;;;0.70;;
11082;SDS011;5595;50.186;8.468;2023-06-19T10:51:35;0.70;;;0.70;;
11082;SDS011;5595;50.186;8.468;2023-06-19T10:54:03;0.65;;;0.50;;
11082;SDS011;5595;50.186;8.468;2023-06-19T10:56:30;0.60;;;0.60;;
11082;SDS011;5595;50.186;8.468;2023-06-19T10:58:59;0.50;;;0.47;;
11082;SDS011;5595;50.186;8.468;2023-06-19T11:01:33;0.57;;;0.57;;
11082;SDS011;5595;50.186;8.468;2023-06-19T11:04:02;0.50;;;0.50;;
11082;SDS011;5595;50.186;8.468;2023-06-19T11:06:30;1.38;;;0.82;;
11082;SDS011;5595;50.186;8.468;2023-06-19T11:08:57;1.02;;;0.85;;
11082;SDS011;5595;50.186;8.468;2023-06-19T11:11:33;1.52;;;0.70;;
11082;SDS011;5595;50.186;8.468;2023-06-19T11:14:02;0.70;;;0.70;;
11082;SDS011;5595;50.186;8.468;2023-06-19T11:16:30;0.82;;;0.70;;
11082;SDS011;5595;50.186;8.468;2023-06-19T11:18:57;0.68;;;0.68;;
11082;SDS011;5595;50.186;8.468;2023-06-19T11:21:29;0.60;;;0.50;;
11082;SDS011;5595;50.186;8.468;2023-06-19T11:23:58;0.90;;;0.80;;
11082;SDS011;5595;50.186;8.468;2023-06-19T11:26:25;1.17;;;0.63;;
11082;SDS011;5595;50.186;8.468;2023-06-19T11:28:52;0.65;;;0.63;;
11082;SDS011;5595;50.186;8.468;2023-06-19T11:31:25;1.30;;;0.93;;
11082;SDS011;5595;50.186;8.468;2023-06-19T11:33:57;1.08;;;0.68;;
11082;SDS011;5595;50.186;8.468;2023-06-19T11:36:24;0.60;;;0.57;;
11082;SDS011;5595;50.186;8.468;2023-06-19T11:38:51;0.57;;;0.52;;
11082;SDS011;5595;50.186;8.468;2023-06-19T11:41:24;0.82;;;0.60;;
11082;SDS011;5595;50.186;8.468;2023-06-19T11:43:57;2.17;;;0.90;;
11082;SDS011;5595;50.186;8.468;2023-06-19T11:46:29;0.75;;;0.75;;
11082;SDS011;5595;50.186;8.468;2023-06-19T11:49:06;0.65;;;0.65;;
11082;SDS011;5595;50.186;8.468;2023-06-19T11:51:34;0.73;;;0.70;;
11082;SDS011;5595;50.186;8.468;2023-06-19T11:54:01;0.60;;;0.60;;
11082;SDS011;5595;50.186;8.468;2023-06-19T11:56:35;1.17;;;0.70;;
11082;SDS011;5595;50.186;8.468;2023-06-19T11:59:02;0.65;;;0.63;;
11082;SDS011;5595;50.186;8.468;2023-06-19T12:01:30;0.88;;;0.60;;
11082;SDS011;5595;50.186;8.468;2023-06-19T12:03:57;1.20;;;0.50;;
11082;SDS011;5595;50.186;8.468;2023-06-19T12:06:24;0.60;;;0.60;;
11082;SDS011;5595;50.186;8.468;2023-06-19T12:08:52;0.65;;;0.60;;
11082;SDS011;5595;50.186;8.468;2023-06-19T12:11:19;0.50;;;0.50;;
11082;SDS011;5595;50.186;8.468;2023-06-19T12:13:46;0.93;;;0.73;;
11082;SDS011;5595;50.186;8.468;2023-06-19T12:16:13;0.60;;;0.60;;
11082;SDS011;5595;50.186;8.468;2023-06-19T12:18:41;0.52;;;0.52;;
11082;SDS011;5595;50.186;8.468;2023-06-19T12:21:08;0.95;;;0.60;;
11082;SDS011;5595;50.186;8.468;2023-06-19T12:23:35;0.82;;;0.70;;
11082;SDS011;5595;50.186;8.468;2023-06-19T12:26:02;0.68;;;0.63;;
11082;SDS011;5595;50.186;8.468;2023-06-19T12:28:29;1.73;;;0.73;;
11082;SDS011;5595;50.186;8.468;2023-06-19T12:30:55;1.42;;;0.88;;
11082;SDS011;5595;50.186;8.468;2023-06-19T12:33:23;1.05;;;0.60;;
11082;SDS011;5595;50.186;8.468;2023-06-19T12:35:51;0.70;;;0.70;;
11082;SDS011;5595;50.186;8.468;2023-06-19T12:38:18;0.60;;;0.50;;
11082;SDS011;5595;50.186;8.468;2023-06-19T12:40:45;0.88;;;0.60;;
11082;SDS011;5595;50.186;8.468;2023-06-19T12:43:11;0.73;;;0.50;;
11082;SDS011;5595;50.186;8.468;2023-06-19T12:45:38;0.85;;;0.80;;
11082;SDS011;5595;50.186;8.468;2023-06-19T12:48:06;5.80;;;0.65;;
11082;SDS011;5595;50.186;8.468;2023-06-19T12:50:33;0.90;;;0.68;;
11082;SDS011;5595;50.186;8.468;2023-06-19T12:53:01;0.90;;;0.90;;
11082;SDS011;5595;50.186;8.468;2023-06-19T12:55:28;0.93;;;0.80;;
11082;SDS011;5595;50.186;8.468;2023-06-19T12:57:55;0.73;;;0.70;;
11082;SDS011;5595;50.186;8.468;2023-06-19T13:00:22;0.60;;;0.60;;
11082;SDS011;5595;50.186;8.468;2023-06-19T13:02:48;0.95;;;0.70;;
11082;SDS011;5595;50.186;8.468;2023-06-19T13:05:15;0.73;;;0.73;;
11082;SDS011;5595;50.186;8.468;2023-06-19T13:07:42;0.80;;;0.70;;
11082;SDS011;5595;50.186;8.468;2023-06-19T13:10:10;0.60;;;0.60;;
11082;SDS011;5595;50.186;8.468;2023-06-19T13:12:37;0.77;;;0.60;;
11082;SDS011;5595;50.186;8.468;2023-06-19T13:15:05;0.55;;;0.52;;
11082;SDS011;5595;50.186;8.468;2023-06-19T13:17:32;0.70;;;0.70;;
11082;SDS011;5595;50.186;8.468;2023-06-19T13:19:59;0.80;;;0.80;;
11082;SDS011;5595;50.186;8.468;2023-06-19T13:22:26;0.90;;;0.60;;
11082;SDS011;5595;50.186;8.468;2023-06-19T13:24:53;0.73;;;0.60;;
11082;SDS011;5595;50.186;8.468;2023-06-19T13:27:21;0.90;;;0.90;;
11082;SDS011;5595;50.186;8.468;2023-06-19T13:29:48;0.50;;;0.50;;
11082;SDS011;5595;50.186;8.468;2023-06-19T13:32:14;0.70;;;0.70;;
11082;SDS011;5595;50.186;8.468;2023-06-19T13:34:41;1.35;;;0.85;;
11082;SDS011;5595;50.186;8.468;2023-06-19T13:37:08;0.57;;;0.50;;
11082;SDS011;5595;50.186;8.468;2023-06-19T13:39:35;1.20;;;0.50;;
11082;SDS011;5595;50.186;8.468;2023-06-19T13:42:03;1.17;;;0.82;;
11082;SDS011;5595;50.186;8.468;2023-06-19T13:44:32;0.50;;;0.50;;
11082;SDS011;5595;50.186;8.468;2023-06-19T13:46:58;0.70;;;0.50;;
11082;SDS011;5595;50.186;8.468;2023-06-19T13:49:25;0.70;;;0.60;;
11082;SDS011;5595;50.186;8.468;2023-06-19T13:51:52;4.47;;;0.60;;
11082;SDS011;5595;50.186;8.468;2023-06-19T13:54:19;1.58;;;0.70;;
11082;SDS011;5595;50.186;8.468;2023-06-19T13:56:46;0.65;;;0.50;;
11082;SDS011;5595;50.186;8.468;2023-06-19T13:59:13;0.63;;;0.63;;
11082;SDS011;5595;50.186;8.468;2023-06-19T14:01:42;0.80;;;0.63;;
11082;SDS011;5595;50.186;8.468;2023-06-19T14:04:09;0.60;;;0.60;;
11082;SDS011;5595;50.186;8.468;2023-06-19T14:06:36;0.52;;;0.50;;
11082;SDS011;5595;50.186;8.468;2023-06-19T14:09:03;2.03;;;0.93;;
11082;SDS011;5595;50.186;8.468;2023-06-19T14:11:30;1.75;;;0.50;;
11082;SDS011;5595;50.186;8.468;2023-06-19T14:13:57;0.50;;;0.50;;
11082;SDS011;5595;50.186;8.468;2023-06-19T14:16:24;0.50;;;0.50;;
11082;SDS011;5595;50.186;8.468;2023-06-19T14:18:52;1.20;;;0.85;;
11082;SDS011;5595;50.186;8.468;2023-06-19T14:21:19;0.65;;;0.50;;
11082;SDS011;5595;50.186;8.468;2023-06-19T14:23:49;0.65;;;0.65;;
11082;SDS011;5595;50.186;8.468;2023-06-19T14:26:16;0.60;;;0.52;;
11082;SDS011;5595;50.186;8.468;2023-06-19T14:28:42;1.15;;;0.88;;
11082;SDS011;5595;50.186;8.468;2023-06-19T14:31:09;0.82;;;0.50;;
11082;SDS011;5595;50.186;8.468;2023-06-19T14:33:36;0.90;;;0.55;;
11082;SDS011;5595;50.186;8.468;2023-06-19T14:36:04;2.05;;;0.60;;
11082;SDS011;5595;50.186;8.468;2023-06-19T14:38:31;0.68;;;0.68;;
11082;SDS011;5595;50.186;8.468;2023-06-19T14:40:59;1.55;;;0.70;;
11082;SDS011;5595;50.186;8.468;2023-06-19T14:43:26;0.82;;;0.55;;
11082;SDS011;5595;50.186;8.468;2023-06-19T14:45:53;0.80;;;0.80;;
11082;SDS011;5595;50.186;8.468;2023-06-19T14:48:20;0.45;;;0.45;;
11082;SDS011;5595;50.186;8.468;2023-06-19T14:50:47;1.67;;;1.25;;
11082;SDS011;5595;50.186;8.468;2023-06-19T14:53:15;0.73;;;0.60;;
11082;SDS011;5595;50.186;8.468;2023-06-19T14:55:42;0.98;;;0.52;;
11082;SDS011;5595;50.186;8.468;2023-06-19T14:58:11;0.50;;;0.50;;
11082;SDS011;5595;50.186;8.468;2023-06-19T15:00:38;0.60;;;0.60;;
11082;SDS011;5595;50.186;8.468;2023-06-19T15:03:05;2.35;;;0.52;;